sensor_id;sensor_type;location;lat;lon;timestamp;P1;durP1;ratioP1;P2;durP2;ratioP2
36205;SDS011;22242;48.796;9.930;2023-04-25T00:01:26;6.32;;;2.08;;
36205;SDS011;22242;48.796;9.930;2023-04-25T00:03:53;2.92;;;2.00;;
36205;SDS011;22242;48.796;9.930;2023-04-25T00:06:21;2.42;;;1.65;;
36205;SDS011;22242;48.796;9.930;2023-04-25T00:08:51;2.83;;;1.55;;
36205;SDS011;22242;48.796;9.930;2023-04-25T00:11:20;2.47;;;1.90;;
36205;SDS011;22242;48.796;9.930;2023-04-25T00:13:47;2.13;;;1.90;;
36205;SDS011;22242;48.796;9.930;2023-04-25T00:16:16;2.72;;;2.00;;
36205;SDS011;22242;48.796;9.930;2023-04-25T00:18:43;2.50;;;1.70;;
36205;SDS011;22242;48.796;9.930;2023-04-25T00:21:11;1.73;;;1.55;;
36205;SDS011;22242;48.796;9.930;2023-04-25T00:23:38;4.40;;;1.50;;
36205;SDS011;22242;48.796;9.930;2023-04-25T00:26:05;3.92;;;2.45;;
36205;SDS011;22242;48.796;9.930;2023-04-25T00:28:34;3.25;;;2.00;;
36205;SDS011;22242;48.796;9.930;2023-04-25T00:31:01;3.35;;;2.13;;
36205;SDS011;22242;48.796;9.930;2023-04-25T00:33:28;3.80;;;1.52;;
36205;SDS011;22242;48.796;9.930;2023-04-25T00:35:55;1.85;;;1.60;;
36205;SDS011;22242;48.796;9.930;2023-04-25T00:38:22;2.00;;;1.80;;
36205;SDS011;22242;48.796;9.930;2023-04-25T00:40:49;2.75;;;2.08;;
36205;SDS011;22242;48.796;9.930;2023-04-25T00:43:18;2.20;;;2.00;;
36205;SDS011;22242;48.796;9.930;2023-04-25T00:45:46;5.78;;;2.00;;
36205;SDS011;22242;48.796;9.930;2023-04-25T00:48:15;2.97;;;1.90;;
36205;SDS011;22242;48.796;9.930;2023-04-25T00:50:44;2.70;;;1.77;;
36205;SDS011;22242;48.796;9.930;2023-04-25T00:55:44;2.33;;;2.10;;
36205;SDS011;22242;48.796;9.930;2023-04-25T00:58:11;4.22;;;2.05;;
36205;SDS011;22242;48.796;9.930;2023-04-25T01:00:39;2.30;;;1.80;;
36205;SDS011;22242;48.796;9.930;2023-04-25T01:03:08;3.33;;;1.95;;
36205;SDS011;22242;48.796;9.930;2023-04-25T01:05:36;2.97;;;1.80;;
36205;SDS011;22242;48.796;9.930;2023-04-25T01:08:03;2.08;;;1.88;;
36205;SDS011;22242;48.796;9.930;2023-04-25T01:10:30;1.85;;;1.70;;
36205;SDS011;22242;48.796;9.930;2023-04-25T01:12:57;3.22;;;2.20;;
36205;SDS011;22242;48.796;9.930;2023-04-25T01:15:24;2.13;;;1.90;;
36205;SDS011;22242;48.796;9.930;2023-04-25T01:17:52;2.28;;;2.08;;
36205;SDS011;22242;48.796;9.930;2023-04-25T01:20:22;3.60;;;2.25;;
36205;SDS011;22242;48.796;9.930;2023-04-25T01:22:51;3.20;;;1.92;;
36205;SDS011;22242;48.796;9.930;2023-04-25T01:25:20;4.63;;;2.17;;
36205;SDS011;22242;48.796;9.930;2023-04-25T01:27:48;2.58;;;2.00;;
36205;SDS011;22242;48.796;9.930;2023-04-25T01:30:16;4.05;;;1.92;;
36205;SDS011;22242;48.796;9.930;2023-04-25T01:32:43;3.08;;;1.85;;
36205;SDS011;22242;48.796;9.930;2023-04-25T01:35:11;2.40;;;2.20;;
36205;SDS011;22242;48.796;9.930;2023-04-25T01:37:38;2.67;;;2.10;;
36205;SDS011;22242;48.796;9.930;2023-04-25T01:40:08;2.90;;;1.75;;
36205;SDS011;22242;48.796;9.930;2023-04-25T01:42:41;2.10;;;1.90;;
36205;SDS011;22242;48.796;9.930;2023-04-25T01:45:09;3.75;;;2.00;;
36205;SDS011;22242;48.796;9.930;2023-04-25T01:47:37;3.15;;;2.05;;
36205;SDS011;22242;48.796;9.930;2023-04-25T01:50:07;2.15;;;1.95;;
36205;SDS011;22242;48.796;9.930;2023-04-25T01:52:36;2.55;;;2.15;;
36205;SDS011;22242;48.796;9.930;2023-04-25T01:55:04;2.60;;;2.40;;
36205;SDS011;22242;48.796;9.930;2023-04-25T01:57:35;4.05;;;2.20;;
36205;SDS011;22242;48.796;9.930;2023-04-25T02:00:03;2.65;;;2.35;;
36205;SDS011;22242;48.796;9.930;2023-04-25T02:02:38;4.38;;;2.25;;
36205;SDS011;22242;48.796;9.930;2023-04-25T02:05:14;3.45;;;2.53;;
36205;SDS011;22242;48.796;9.930;2023-04-25T02:07:42;5.65;;;2.95;;
36205;SDS011;22242;48.796;9.930;2023-04-25T02:10:09;3.97;;;2.88;;
36205;SDS011;22242;48.796;9.930;2023-04-25T02:12:50;5.15;;;2.90;;
36205;SDS011;22242;48.796;9.930;2023-04-25T02:15:43;5.88;;;2.63;;
36205;SDS011;22242;48.796;9.930;2023-04-25T02:18:15;2.90;;;2.60;;
36205;SDS011;22242;48.796;9.930;2023-04-25T02:20:43;4.80;;;3.20;;
36205;SDS011;22242;48.796;9.930;2023-04-25T02:23:10;6.78;;;2.78;;
36205;SDS011;22242;48.796;9.930;2023-04-25T02:25:38;3.70;;;2.58;;
36205;SDS011;22242;48.796;9.930;2023-04-25T02:28:06;3.17;;;2.70;;
36205;SDS011;22242;48.796;9.930;2023-04-25T02:30:34;4.07;;;2.90;;
36205;SDS011;22242;48.796;9.930;2023-04-25T02:33:04;4.28;;;2.80;;
36205;SDS011;22242;48.796;9.930;2023-04-25T02:35:31;3.33;;;2.20;;
36205;SDS011;22242;48.796;9.930;2023-04-25T02:37:58;4.03;;;2.53;;
36205;SDS011;22242;48.796;9.930;2023-04-25T02:40:25;3.67;;;2.33;;
36205;SDS011;22242;48.796;9.930;2023-04-25T02:42:53;3.55;;;2.55;;
36205;SDS011;22242;48.796;9.930;2023-04-25T02:45:22;2.70;;;2.22;;
36205;SDS011;22242;48.796;9.930;2023-04-25T02:47:49;3.33;;;2.67;;
36205;SDS011;22242;48.796;9.930;2023-04-25T02:50:18;5.30;;;2.38;;
36205;SDS011;22242;48.796;9.930;2023-04-25T02:52:45;5.03;;;2.33;;
36205;SDS011;22242;48.796;9.930;2023-04-25T02:55:16;3.63;;;2.58;;
36205;SDS011;22242;48.796;9.930;2023-04-25T02:57:44;4.10;;;2.58;;
36205;SDS011;22242;48.796;9.930;2023-04-25T03:00:17;4.80;;;2.80;;
36205;SDS011;22242;48.796;9.930;2023-04-25T03:02:46;5.93;;;2.85;;
36205;SDS011;22242;48.796;9.930;2023-04-25T03:05:13;3.67;;;2.45;;
36205;SDS011;22242;48.796;9.930;2023-04-25T03:07:40;3.58;;;2.35;;
36205;SDS011;22242;48.796;9.930;2023-04-25T03:10:09;4.55;;;2.45;;
36205;SDS011;22242;48.796;9.930;2023-04-25T03:12:37;5.30;;;2.45;;
36205;SDS011;22242;48.796;9.930;2023-04-25T03:15:04;3.03;;;2.20;;
36205;SDS011;22242;48.796;9.930;2023-04-25T03:17:32;4.13;;;2.30;;
36205;SDS011;22242;48.796;9.930;2023-04-25T03:20:01;2.90;;;2.58;;
36205;SDS011;22242;48.796;9.930;2023-04-25T03:22:31;3.95;;;2.42;;
36205;SDS011;22242;48.796;9.930;2023-04-25T03:24:58;3.83;;;2.42;;
36205;SDS011;22242;48.796;9.930;2023-04-25T03:27:25;4.55;;;3.40;;
36205;SDS011;22242;48.796;9.930;2023-04-25T03:29:52;4.45;;;2.10;;
36205;SDS011;22242;48.796;9.930;2023-04-25T03:32:19;5.07;;;2.45;;
36205;SDS011;22242;48.796;9.930;2023-04-25T03:34:46;4.10;;;3.00;;
36205;SDS011;22242;48.796;9.930;2023-04-25T03:37:15;6.38;;;2.78;;
36205;SDS011;22242;48.796;9.930;2023-04-25T03:39:42;4.15;;;2.60;;
36205;SDS011;22242;48.796;9.930;2023-04-25T03:42:10;3.33;;;2.30;;
36205;SDS011;22242;48.796;9.930;2023-04-25T03:44:37;4.50;;;2.20;;
36205;SDS011;22242;48.796;9.930;2023-04-25T03:47:04;3.75;;;2.55;;
36205;SDS011;22242;48.796;9.930;2023-04-25T03:49:32;2.70;;;1.92;;
36205;SDS011;22242;48.796;9.930;2023-04-25T03:52:02;2.30;;;2.08;;
36205;SDS011;22242;48.796;9.930;2023-04-25T03:54:36;2.27;;;1.97;;
36205;SDS011;22242;48.796;9.930;2023-04-25T03:57:07;2.83;;;2.50;;
36205;SDS011;22242;48.796;9.930;2023-04-25T03:59:37;9.15;;;2.40;;
36205;SDS011;22242;48.796;9.930;2023-04-25T04:02:06;2.38;;;2.17;;
36205;SDS011;22242;48.796;9.930;2023-04-25T04:04:34;7.38;;;2.50;;
36205;SDS011;22242;48.796;9.930;2023-04-25T04:07:01;4.43;;;2.45;;
36205;SDS011;22242;48.796;9.930;2023-04-25T04:09:32;4.30;;;2.38;;
36205;SDS011;22242;48.796;9.930;2023-04-25T04:12:05;6.22;;;2.80;;
36205;SDS011;22242;48.796;9.930;2023-04-25T04:14:33;3.80;;;2.45;;
36205;SDS011;22242;48.796;9.930;2023-04-25T04:17:00;6.47;;;3.05;;
36205;SDS011;22242;48.796;9.930;2023-04-25T04:19:28;3.90;;;2.53;;
36205;SDS011;22242;48.796;9.930;2023-04-25T04:22:03;3.45;;;2.60;;
36205;SDS011;22242;48.796;9.930;2023-04-25T04:24:30;4.68;;;2.42;;
36205;SDS011;22242;48.796;9.930;2023-04-25T04:29:35;4.72;;;2.40;;
36205;SDS011;22242;48.796;9.930;2023-04-25T04:32:10;4.90;;;2.90;;
36205;SDS011;22242;48.796;9.930;2023-04-25T04:34:38;3.70;;;2.70;;
36205;SDS011;22242;48.796;9.930;2023-04-25T04:37:06;5.82;;;2.80;;
36205;SDS011;22242;48.796;9.930;2023-04-25T04:39:35;6.85;;;3.00;;
36205;SDS011;22242;48.796;9.930;2023-04-25T04:42:13;5.38;;;3.03;;
36205;SDS011;22242;48.796;9.930;2023-04-25T04:44:50;10.15;;;4.28;;
36205;SDS011;22242;48.796;9.930;2023-04-25T04:47:35;6.47;;;3.60;;
36205;SDS011;22242;48.796;9.930;2023-04-25T04:50:43;6.43;;;2.72;;
36205;SDS011;22242;48.796;9.930;2023-04-25T04:53:14;11.65;;;3.50;;
36205;SDS011;22242;48.796;9.930;2023-04-25T04:56:00;6.63;;;2.70;;
36205;SDS011;22242;48.796;9.930;2023-04-25T04:58:48;6.25;;;2.72;;
36205;SDS011;22242;48.796;9.930;2023-04-25T05:01:21;3.50;;;2.78;;
36205;SDS011;22242;48.796;9.930;2023-04-25T05:04:01;10.73;;;3.97;;
36205;SDS011;22242;48.796;9.930;2023-04-25T05:06:47;4.63;;;3.42;;
36205;SDS011;22242;48.796;9.930;2023-04-25T05:09:30;5.20;;;3.13;;
36205;SDS011;22242;48.796;9.930;2023-04-25T05:12:27;3.88;;;2.70;;
36205;SDS011;22242;48.796;9.930;2023-04-25T05:15:19;4.55;;;2.70;;
36205;SDS011;22242;48.796;9.930;2023-04-25T05:18:09;6.47;;;2.50;;
36205;SDS011;22242;48.796;9.930;2023-04-25T05:21:06;7.32;;;2.55;;
36205;SDS011;22242;48.796;9.930;2023-04-25T05:23:45;6.43;;;2.58;;
36205;SDS011;22242;48.796;9.930;2023-04-25T05:26:31;7.25;;;2.40;;
36205;SDS011;22242;48.796;9.930;2023-04-25T05:29:18;3.15;;;2.65;;
36205;SDS011;22242;48.796;9.930;2023-04-25T05:32:09;4.20;;;2.50;;
36205;SDS011;22242;48.796;9.930;2023-04-25T05:34:36;3.38;;;2.33;;
36205;SDS011;22242;48.796;9.930;2023-04-25T05:37:08;7.70;;;3.40;;
36205;SDS011;22242;48.796;9.930;2023-04-25T05:39:47;4.30;;;2.70;;
36205;SDS011;22242;48.796;9.930;2023-04-25T05:45:17;4.35;;;3.08;;
36205;SDS011;22242;48.796;9.930;2023-04-25T05:48:06;4.32;;;2.42;;
36205;SDS011;22242;48.796;9.930;2023-04-25T05:50:42;4.72;;;2.67;;
36205;SDS011;22242;48.796;9.930;2023-04-25T05:53:18;5.32;;;2.60;;
36205;SDS011;22242;48.796;9.930;2023-04-25T05:55:52;6.32;;;3.10;;
36205;SDS011;22242;48.796;9.930;2023-04-25T05:58:21;7.22;;;3.42;;
36205;SDS011;22242;48.796;9.930;2023-04-25T06:00:49;4.60;;;3.20;;
36205;SDS011;22242;48.796;9.930;2023-04-25T06:03:17;6.53;;;3.20;;
36205;SDS011;22242;48.796;9.930;2023-04-25T06:05:45;5.50;;;3.65;;
36205;SDS011;22242;48.796;9.930;2023-04-25T06:08:12;4.95;;;3.20;;
36205;SDS011;22242;48.796;9.930;2023-04-25T06:10:39;5.82;;;2.80;;
36205;SDS011;22242;48.796;9.930;2023-04-25T06:13:07;6.35;;;3.92;;
36205;SDS011;22242;48.796;9.930;2023-04-25T06:15:35;6.15;;;3.67;;
36205;SDS011;22242;48.796;9.930;2023-04-25T06:18:02;4.50;;;3.17;;
36205;SDS011;22242;48.796;9.930;2023-04-25T06:20:31;5.45;;;3.30;;
36205;SDS011;22242;48.796;9.930;2023-04-25T06:22:59;3.72;;;3.10;;
36205;SDS011;22242;48.796;9.930;2023-04-25T06:25:47;5.35;;;3.35;;
36205;SDS011;22242;48.796;9.930;2023-04-25T06:28:14;4.22;;;3.00;;
36205;SDS011;22242;48.796;9.930;2023-04-25T06:30:42;3.67;;;3.10;;
36205;SDS011;22242;48.796;9.930;2023-04-25T06:33:13;3.20;;;2.90;;
36205;SDS011;22242;48.796;9.930;2023-04-25T06:35:42;4.40;;;3.05;;
36205;SDS011;22242;48.796;9.930;2023-04-25T06:38:11;4.00;;;2.65;;
36205;SDS011;22242;48.796;9.930;2023-04-25T06:40:42;3.72;;;2.85;;
36205;SDS011;22242;48.796;9.930;2023-04-25T06:43:10;3.25;;;2.60;;
36205;SDS011;22242;48.796;9.930;2023-04-25T06:45:55;4.25;;;2.60;;
36205;SDS011;22242;48.796;9.930;2023-04-25T06:48:25;5.53;;;2.72;;
36205;SDS011;22242;48.796;9.930;2023-04-25T06:50:54;4.68;;;2.80;;
36205;SDS011;22242;48.796;9.930;2023-04-25T06:53:23;3.78;;;2.85;;
36205;SDS011;22242;48.796;9.930;2023-04-25T06:55:56;4.35;;;3.13;;
36205;SDS011;22242;48.796;9.930;2023-04-25T06:58:27;4.13;;;2.92;;
36205;SDS011;22242;48.796;9.930;2023-04-25T07:01:05;3.38;;;3.03;;
36205;SDS011;22242;48.796;9.930;2023-04-25T07:03:33;3.60;;;2.92;;
36205;SDS011;22242;48.796;9.930;2023-04-25T07:06:07;3.50;;;3.03;;
36205;SDS011;22242;48.796;9.930;2023-04-25T07:08:34;4.45;;;3.72;;
36205;SDS011;22242;48.796;9.930;2023-04-25T07:11:01;4.70;;;3.33;;
36205;SDS011;22242;48.796;9.930;2023-04-25T07:13:28;5.50;;;3.30;;
36205;SDS011;22242;48.796;9.930;2023-04-25T07:15:56;4.30;;;3.58;;
36205;SDS011;22242;48.796;9.930;2023-04-25T07:18:23;4.05;;;3.00;;
36205;SDS011;22242;48.796;9.930;2023-04-25T07:20:51;4.15;;;3.15;;
36205;SDS011;22242;48.796;9.930;2023-04-25T07:23:19;3.85;;;3.20;;
36205;SDS011;22242;48.796;9.930;2023-04-25T07:25:47;2.97;;;2.55;;
36205;SDS011;22242;48.796;9.930;2023-04-25T07:28:19;3.47;;;2.67;;
36205;SDS011;22242;48.796;9.930;2023-04-25T07:30:46;3.88;;;2.50;;
36205;SDS011;22242;48.796;9.930;2023-04-25T07:33:13;3.45;;;3.05;;
36205;SDS011;22242;48.796;9.930;2023-04-25T07:35:40;4.72;;;2.50;;
36205;SDS011;22242;48.796;9.930;2023-04-25T07:38:08;2.85;;;2.45;;
36205;SDS011;22242;48.796;9.930;2023-04-25T07:40:37;5.10;;;2.63;;
36205;SDS011;22242;48.796;9.930;2023-04-25T07:43:06;5.60;;;2.80;;
36205;SDS011;22242;48.796;9.930;2023-04-25T07:45:44;4.10;;;2.35;;
36205;SDS011;22242;48.796;9.930;2023-04-25T07:48:16;3.28;;;2.58;;
36205;SDS011;22242;48.796;9.930;2023-04-25T07:50:45;2.80;;;2.50;;
36205;SDS011;22242;48.796;9.930;2023-04-25T07:53:13;3.17;;;2.70;;
36205;SDS011;22242;48.796;9.930;2023-04-25T07:55:51;3.17;;;2.67;;
36205;SDS011;22242;48.796;9.930;2023-04-25T07:58:19;2.83;;;2.10;;
36205;SDS011;22242;48.796;9.930;2023-04-25T08:00:51;3.83;;;2.38;;
36205;SDS011;22242;48.796;9.930;2023-04-25T08:03:36;3.22;;;2.92;;
36205;SDS011;22242;48.796;9.930;2023-04-25T08:06:09;3.40;;;3.10;;
36205;SDS011;22242;48.796;9.930;2023-04-25T08:08:59;6.00;;;3.22;;
36205;SDS011;22242;48.796;9.930;2023-04-25T08:11:34;4.75;;;3.00;;
36205;SDS011;22242;48.796;9.930;2023-04-25T08:14:02;3.47;;;2.58;;
36205;SDS011;22242;48.796;9.930;2023-04-25T08:16:29;3.38;;;2.67;;
36205;SDS011;22242;48.796;9.930;2023-04-25T08:18:56;3.22;;;2.92;;
36205;SDS011;22242;48.796;9.930;2023-04-25T08:21:23;2.30;;;2.10;;
36205;SDS011;22242;48.796;9.930;2023-04-25T08:23:53;8.55;;;4.85;;
36205;SDS011;22242;48.796;9.930;2023-04-25T08:26:25;3.92;;;2.58;;
36205;SDS011;22242;48.796;9.930;2023-04-25T08:28:53;4.15;;;2.30;;
36205;SDS011;22242;48.796;9.930;2023-04-25T08:31:21;1.92;;;1.83;;
36205;SDS011;22242;48.796;9.930;2023-04-25T08:33:54;3.80;;;1.75;;
36205;SDS011;22242;48.796;9.930;2023-04-25T08:36:42;2.28;;;2.03;;
36205;SDS011;22242;48.796;9.930;2023-04-25T08:39:25;2.50;;;1.88;;
36205;SDS011;22242;48.796;9.930;2023-04-25T08:42:17;2.67;;;1.77;;
36205;SDS011;22242;48.796;9.930;2023-04-25T08:44:46;2.58;;;2.33;;
36205;SDS011;22242;48.796;9.930;2023-04-25T08:47:15;2.40;;;2.20;;
36205;SDS011;22242;48.796;9.930;2023-04-25T08:49:50;2.42;;;2.13;;
36205;SDS011;22242;48.796;9.930;2023-04-25T08:52:21;2.67;;;2.13;;
36205;SDS011;22242;48.796;9.930;2023-04-25T08:54:51;2.03;;;1.80;;
36205;SDS011;22242;48.796;9.930;2023-04-25T08:57:21;1.85;;;1.75;;
36205;SDS011;22242;48.796;9.930;2023-04-25T08:59:51;2.55;;;1.77;;
36205;SDS011;22242;48.796;9.930;2023-04-25T09:02:20;4.53;;;2.03;;
36205;SDS011;22242;48.796;9.930;2023-04-25T09:04:49;2.20;;;1.92;;
36205;SDS011;22242;48.796;9.930;2023-04-25T09:07:17;2.38;;;2.10;;
36205;SDS011;22242;48.796;9.930;2023-04-25T09:09:46;2.25;;;2.05;;
36205;SDS011;22242;48.796;9.930;2023-04-25T09:12:17;2.75;;;2.30;;
36205;SDS011;22242;48.796;9.930;2023-04-25T09:14:54;2.55;;;2.35;;
36205;SDS011;22242;48.796;9.930;2023-04-25T09:17:49;2.00;;;1.90;;
36205;SDS011;22242;48.796;9.930;2023-04-25T09:20:22;2.00;;;1.70;;
36205;SDS011;22242;48.796;9.930;2023-04-25T09:22:59;2.80;;;1.90;;
36205;SDS011;22242;48.796;9.930;2023-04-25T09:25:28;2.08;;;1.92;;
36205;SDS011;22242;48.796;9.930;2023-04-25T09:28:03;2.00;;;1.80;;
36205;SDS011;22242;48.796;9.930;2023-04-25T09:30:33;2.70;;;2.50;;
36205;SDS011;22242;48.796;9.930;2023-04-25T09:33:17;2.97;;;2.50;;
36205;SDS011;22242;48.796;9.930;2023-04-25T09:35:47;3.53;;;2.55;;
36205;SDS011;22242;48.796;9.930;2023-04-25T09:38:26;2.95;;;2.50;;
36205;SDS011;22242;48.796;9.930;2023-04-25T09:40:57;2.78;;;2.53;;
36205;SDS011;22242;48.796;9.930;2023-04-25T09:43:39;3.60;;;2.70;;
36205;SDS011;22242;48.796;9.930;2023-04-25T09:46:09;5.45;;;3.53;;
36205;SDS011;22242;48.796;9.930;2023-04-25T09:48:40;3.40;;;2.95;;
36205;SDS011;22242;48.796;9.930;2023-04-25T09:51:18;4.47;;;3.20;;
36205;SDS011;22242;48.796;9.930;2023-04-25T09:53:46;3.95;;;3.55;;
36205;SDS011;22242;48.796;9.930;2023-04-25T09:56:25;4.05;;;3.72;;
36205;SDS011;22242;48.796;9.930;2023-04-25T09:58:57;4.45;;;4.05;;
36205;SDS011;22242;48.796;9.930;2023-04-25T10:01:26;5.25;;;4.15;;
36205;SDS011;22242;48.796;9.930;2023-04-25T10:04:05;4.90;;;3.70;;
36205;SDS011;22242;48.796;9.930;2023-04-25T10:07:06;4.40;;;3.65;;
36205;SDS011;22242;48.796;9.930;2023-04-25T10:09:36;5.93;;;4.30;;
36205;SDS011;22242;48.796;9.930;2023-04-25T10:12:05;9.27;;;6.63;;
36205;SDS011;22242;48.796;9.930;2023-04-25T10:14:33;8.10;;;4.15;;
36205;SDS011;22242;48.796;9.930;2023-04-25T10:17:01;8.48;;;6.00;;
36205;SDS011;22242;48.796;9.930;2023-04-25T10:19:29;5.57;;;3.60;;
36205;SDS011;22242;48.796;9.930;2023-04-25T10:21:58;4.65;;;3.95;;
36205;SDS011;22242;48.796;9.930;2023-04-25T10:24:33;4.97;;;3.72;;
36205;SDS011;22242;48.796;9.930;2023-04-25T10:27:02;6.35;;;3.92;;
36205;SDS011;22242;48.796;9.930;2023-04-25T10:29:29;5.70;;;3.42;;
36205;SDS011;22242;48.796;9.930;2023-04-25T10:31:56;4.32;;;3.75;;
36205;SDS011;22242;48.796;9.930;2023-04-25T10:34:37;3.67;;;3.35;;
36205;SDS011;22242;48.796;9.930;2023-04-25T10:37:08;4.55;;;3.47;;
36205;SDS011;22242;48.796;9.930;2023-04-25T10:39:37;5.30;;;4.10;;
36205;SDS011;22242;48.796;9.930;2023-04-25T10:42:06;4.80;;;3.75;;
36205;SDS011;22242;48.796;9.930;2023-04-25T10:44:34;7.45;;;4.18;;
36205;SDS011;22242;48.796;9.930;2023-04-25T10:47:03;9.27;;;6.53;;
36205;SDS011;22242;48.796;9.930;2023-04-25T10:49:34;4.88;;;4.13;;
36205;SDS011;22242;48.796;9.930;2023-04-25T10:52:14;5.05;;;4.65;;
36205;SDS011;22242;48.796;9.930;2023-04-25T10:54:51;4.15;;;2.85;;
36205;SDS011;22242;48.796;9.930;2023-04-25T10:57:29;3.90;;;3.45;;
36205;SDS011;22242;48.796;9.930;2023-04-25T11:00:00;6.82;;;4.80;;
36205;SDS011;22242;48.796;9.930;2023-04-25T11:02:31;4.95;;;4.45;;
36205;SDS011;22242;48.796;9.930;2023-04-25T11:05:04;7.05;;;4.40;;
36205;SDS011;22242;48.796;9.930;2023-04-25T11:07:34;8.00;;;4.72;;
36205;SDS011;22242;48.796;9.930;2023-04-25T11:10:05;4.97;;;3.70;;
36205;SDS011;22242;48.796;9.930;2023-04-25T11:12:33;6.93;;;4.63;;
36205;SDS011;22242;48.796;9.930;2023-04-25T11:15:01;6.82;;;4.13;;
36205;SDS011;22242;48.796;9.930;2023-04-25T11:17:28;4.32;;;3.92;;
36205;SDS011;22242;48.796;9.930;2023-04-25T11:19:56;5.15;;;4.03;;
36205;SDS011;22242;48.796;9.930;2023-04-25T11:22:25;4.00;;;3.70;;
36205;SDS011;22242;48.796;9.930;2023-04-25T11:24:53;3.38;;;2.97;;
36205;SDS011;22242;48.796;9.930;2023-04-25T11:27:21;3.85;;;3.30;;
36205;SDS011;22242;48.796;9.930;2023-04-25T11:29:50;3.95;;;3.35;;
36205;SDS011;22242;48.796;9.930;2023-04-25T11:32:17;3.45;;;3.00;;
36205;SDS011;22242;48.796;9.930;2023-04-25T11:34:45;3.33;;;3.03;;
36205;SDS011;22242;48.796;9.930;2023-04-25T11:37:13;3.60;;;2.70;;
36205;SDS011;22242;48.796;9.930;2023-04-25T11:39:45;3.28;;;2.90;;
36205;SDS011;22242;48.796;9.930;2023-04-25T11:42:12;3.03;;;2.83;;
36205;SDS011;22242;48.796;9.930;2023-04-25T11:44:39;2.70;;;2.50;;
36205;SDS011;22242;48.796;9.930;2023-04-25T11:47:07;2.80;;;2.60;;
36205;SDS011;22242;48.796;9.930;2023-04-25T11:49:33;2.97;;;2.78;;
36205;SDS011;22242;48.796;9.930;2023-04-25T11:52:02;2.95;;;2.75;;
36205;SDS011;22242;48.796;9.930;2023-04-25T11:54:29;3.40;;;2.85;;
36205;SDS011;22242;48.796;9.930;2023-04-25T11:56:57;3.97;;;3.10;;
36205;SDS011;22242;48.796;9.930;2023-04-25T11:59:24;3.33;;;3.03;;
36205;SDS011;22242;48.796;9.930;2023-04-25T12:01:53;4.47;;;3.85;;
36205;SDS011;22242;48.796;9.930;2023-04-25T12:04:21;6.35;;;3.92;;
36205;SDS011;22242;48.796;9.930;2023-04-25T12:06:49;4.32;;;3.92;;
36205;SDS011;22242;48.796;9.930;2023-04-25T12:09:18;4.15;;;3.75;;
36205;SDS011;22242;48.796;9.930;2023-04-25T12:11:48;4.65;;;3.70;;
36205;SDS011;22242;48.796;9.930;2023-04-25T12:14:24;4.45;;;3.42;;
36205;SDS011;22242;48.796;9.930;2023-04-25T12:16:52;6.90;;;4.60;;
36205;SDS011;22242;48.796;9.930;2023-04-25T12:19:21;4.50;;;3.78;;
36205;SDS011;22242;48.796;9.930;2023-04-25T12:21:48;4.82;;;3.30;;
36205;SDS011;22242;48.796;9.930;2023-04-25T12:24:21;3.13;;;2.83;;
36205;SDS011;22242;48.796;9.930;2023-04-25T12:26:51;3.03;;;2.83;;
36205;SDS011;22242;48.796;9.930;2023-04-25T12:29:20;2.85;;;2.10;;
36205;SDS011;22242;48.796;9.930;2023-04-25T12:31:50;3.63;;;2.83;;
36205;SDS011;22242;48.796;9.930;2023-04-25T12:34:18;5.07;;;2.95;;
36205;SDS011;22242;48.796;9.930;2023-04-25T12:36:45;2.90;;;2.70;;
36205;SDS011;22242;48.796;9.930;2023-04-25T12:39:16;3.30;;;2.50;;
36205;SDS011;22242;48.796;9.930;2023-04-25T12:41:43;2.83;;;2.50;;
36205;SDS011;22242;48.796;9.930;2023-04-25T12:44:10;2.92;;;2.58;;
36205;SDS011;22242;48.796;9.930;2023-04-25T12:46:38;2.75;;;2.10;;
36205;SDS011;22242;48.796;9.930;2023-04-25T12:49:07;2.88;;;2.00;;
36205;SDS011;22242;48.796;9.930;2023-04-25T12:51:34;2.70;;;1.75;;
36205;SDS011;22242;48.796;9.930;2023-04-25T12:54:02;2.92;;;2.03;;
36205;SDS011;22242;48.796;9.930;2023-04-25T12:56:31;3.22;;;2.17;;
36205;SDS011;22242;48.796;9.930;2023-04-25T12:58:58;3.10;;;2.40;;
36205;SDS011;22242;48.796;9.930;2023-04-25T13:01:25;3.47;;;2.50;;
36205;SDS011;22242;48.796;9.930;2023-04-25T13:03:52;3.45;;;2.17;;
36205;SDS011;22242;48.796;9.930;2023-04-25T13:06:21;2.22;;;1.95;;
36205;SDS011;22242;48.796;9.930;2023-04-25T13:08:48;3.97;;;1.80;;
36205;SDS011;22242;48.796;9.930;2023-04-25T13:11:15;3.53;;;2.03;;
36205;SDS011;22242;48.796;9.930;2023-04-25T13:13:43;2.50;;;2.00;;
36205;SDS011;22242;48.796;9.930;2023-04-25T13:16:10;2.63;;;1.98;;
36205;SDS011;22242;48.796;9.930;2023-04-25T13:18:39;2.53;;;2.17;;
36205;SDS011;22242;48.796;9.930;2023-04-25T13:21:06;3.08;;;2.13;;
36205;SDS011;22242;48.796;9.930;2023-04-25T13:23:34;2.65;;;2.38;;
36205;SDS011;22242;48.796;9.930;2023-04-25T13:26:01;2.80;;;2.60;;
36205;SDS011;22242;48.796;9.930;2023-04-25T13:28:28;3.83;;;3.33;;
36205;SDS011;22242;48.796;9.930;2023-04-25T13:30:55;6.22;;;3.33;;
36205;SDS011;22242;48.796;9.930;2023-04-25T13:33:23;4.25;;;3.30;;
36205;SDS011;22242;48.796;9.930;2023-04-25T13:35:51;3.80;;;3.50;;
36205;SDS011;22242;48.796;9.930;2023-04-25T13:38:20;4.40;;;3.58;;
36205;SDS011;22242;48.796;9.930;2023-04-25T13:40:49;5.22;;;3.92;;
36205;SDS011;22242;48.796;9.930;2023-04-25T13:43:18;4.55;;;3.90;;
36205;SDS011;22242;48.796;9.930;2023-04-25T13:45:45;6.28;;;4.25;;
36205;SDS011;22242;48.796;9.930;2023-04-25T13:48:13;6.75;;;3.78;;
36205;SDS011;22242;48.796;9.930;2023-04-25T13:50:40;5.35;;;4.28;;
36205;SDS011;22242;48.796;9.930;2023-04-25T13:53:07;4.82;;;4.10;;
36205;SDS011;22242;48.796;9.930;2023-04-25T13:55:34;6.35;;;4.88;;
36205;SDS011;22242;48.796;9.930;2023-04-25T13:58:03;8.05;;;4.63;;
36205;SDS011;22242;48.796;9.930;2023-04-25T14:00:33;6.65;;;5.50;;
36205;SDS011;22242;48.796;9.930;2023-04-25T14:03:03;8.48;;;5.78;;
36205;SDS011;22242;48.796;9.930;2023-04-25T14:05:32;5.80;;;4.63;;
36205;SDS011;22242;48.796;9.930;2023-04-25T14:08:04;7.55;;;5.30;;
36205;SDS011;22242;48.796;9.930;2023-04-25T14:10:32;5.50;;;4.70;;
36205;SDS011;22242;48.796;9.930;2023-04-25T14:13:00;9.32;;;5.75;;
36205;SDS011;22242;48.796;9.930;2023-04-25T14:15:29;7.35;;;5.25;;
36205;SDS011;22242;48.796;9.930;2023-04-25T14:17:57;8.15;;;5.10;;
36205;SDS011;22242;48.796;9.930;2023-04-25T14:20:25;6.53;;;5.57;;
36205;SDS011;22242;48.796;9.930;2023-04-25T14:22:52;6.78;;;5.28;;
36205;SDS011;22242;48.796;9.930;2023-04-25T14:25:19;7.57;;;5.60;;
36205;SDS011;22242;48.796;9.930;2023-04-25T14:27:47;6.63;;;4.97;;
36205;SDS011;22242;48.796;9.930;2023-04-25T14:30:15;8.05;;;5.43;;
36205;SDS011;22242;48.796;9.930;2023-04-25T14:32:43;7.20;;;5.93;;
36205;SDS011;22242;48.796;9.930;2023-04-25T14:35:11;5.82;;;5.05;;
36205;SDS011;22242;48.796;9.930;2023-04-25T14:37:38;6.07;;;4.85;;
36205;SDS011;22242;48.796;9.930;2023-04-25T14:40:06;12.23;;;5.72;;
36205;SDS011;22242;48.796;9.930;2023-04-25T14:42:35;7.70;;;4.90;;
36205;SDS011;22242;48.796;9.930;2023-04-25T14:45:03;5.45;;;4.95;;
36205;SDS011;22242;48.796;9.930;2023-04-25T14:47:30;6.75;;;5.22;;
36205;SDS011;22242;48.796;9.930;2023-04-25T14:49:59;6.13;;;4.95;;
36205;SDS011;22242;48.796;9.930;2023-04-25T14:52:27;8.18;;;5.20;;
36205;SDS011;22242;48.796;9.930;2023-04-25T14:54:54;7.47;;;5.00;;
36205;SDS011;22242;48.796;9.930;2023-04-25T14:57:21;5.78;;;5.10;;
36205;SDS011;22242;48.796;9.930;2023-04-25T14:59:48;5.43;;;4.82;;
36205;SDS011;22242;48.796;9.930;2023-04-25T15:02:15;5.20;;;4.70;;
36205;SDS011;22242;48.796;9.930;2023-04-25T15:04:42;5.03;;;4.55;;
36205;SDS011;22242;48.796;9.930;2023-04-25T15:07:10;6.45;;;5.32;;
36205;SDS011;22242;48.796;9.930;2023-04-25T15:09:38;6.63;;;5.30;;
36205;SDS011;22242;48.796;9.930;2023-04-25T15:12:05;6.55;;;5.75;;
36205;SDS011;22242;48.796;9.930;2023-04-25T15:14:32;6.65;;;5.95;;
36205;SDS011;22242;48.796;9.930;2023-04-25T15:16:59;5.85;;;5.22;;